Terminal Aerodrome Forecast
Issued by NWS

Home | Current Version | Previous Version | Text Only | Print | Product List | Glossary On
Versions: 1 2 3 4 5 6 7 8 9 10 11 12 13 14 15 16 17 18 19 20 21
000
FTUS45 KFGZ 260700 AAB
TAFGCN
TAF AMD
KGCN 260736Z 2608/2706 VRB03KT P6SM FEW006 SCT030
      TEMPO 2608/2610 BKN006
     FM261800 29008KT P6SM SCT040
     FM270100 VRB02KT P6SM FEW035=

USA.gov is the U.S. government's official web portal to all federal, state and local government web resources and services.